Time;durP1;ratioP1;P1;durP2;ratioP2;P2;SDS_P1;SDS_P2;PMS_P1;PMS_P2;Temp;Humidity;BMP_temperature;BMP_pressure;BME280_temperature;BME280_humidity;BME280_pressure;Samples;Min_cycle;Max_cycle;Signal;HPM_P1;HPM_P2
2022/04/27 00:00:05;;;;;;;;;;;;;;;;;;337869;29;927;-34
2022/04/27 00:00:38;;;;;;;;;;;;;;;;;;337319;29;956;-35
2022/04/27 00:00:49;;;;;;;;;;;;;;;;;;337709;29;1176;-34
2022/04/27 00:01:01;;;;;;;;;;;;;;;;;;337662;29;1447;-34
2022/04/27 00:01:12;;;;;;;;;;;;;;;;;;337581;29;1186;-34
2022/04/27 00:01:24;;;;;;;;;;;;;;;;;;337198;29;934;-34
2022/04/27 00:01:40;;;;;;;;;;;;;;;;;;336147;29;1214;-34
2022/04/27 00:01:51;;;;;;;;;;;;;;;;;;338531;29;1330;-34
2022/04/27 00:02:04;;;;;;;;;;;;;;;;;;338176;29;1111;-34
2022/04/27 00:02:15;;;;;;;;;;;;;;;;;;337864;29;1210;-34
2022/04/27 00:02:26;;;;;;;;;;;;;;;;;;338962;29;872;-34
2022/04/27 00:02:39;;;;;;;;;;;;;;;;;;338545;29;1978;-34
2022/04/27 00:03:02;;;;;;;;;;;;;;;;;;339284;29;990;-34
2022/04/27 00:03:15;;;;;;;;;;;;;;;;;;340149;29;944;-34
2022/04/27 00:03:27;;;;;;;;;;;;;;;;;;340349;29;1010;-32
2022/04/27 00:03:38;;;;;;;;;;;;;;;;;;338336;29;1472;-34
2022/04/27 00:03:50;;;;;;;;;;;;;;;;;;340420;29;914;-33
2022/04/27 00:04:04;;;;;;;;;;;;;;;;;;340159;29;1290;-34
2022/04/27 00:04:17;;;;;;;;;;;;;;;;;;339145;29;819;-34
2022/04/27 00:04:31;;;;;;;;;;;;;;;;;;337767;29;898;-34
2022/04/27 00:04:44;;;;;;;;;;;;;;;;;;336210;29;1355;-33
2022/04/27 00:04:56;;;;;;;;;;;;;;;;;;335919;29;917;-34
2022/04/27 00:05:07;;;;;;;;;;;;;;;;;;336384;29;1055;-35
2022/04/27 00:05:19;;;;;;;;;;;;;;;;;;337614;29;953;-35
2022/04/27 00:05:30;;;;;;;;;;;;;;;;;;336486;29;1679;-34
2022/04/27 00:05:40;;;;;;;;;;;;;;;;;;336076;29;817;-34
2022/04/27 00:05:51;;;;;;;;;;;;;;;;;;336393;29;1168;-34
2022/04/27 00:06:03;;;;;;;;;;;;;;;;;;336570;29;907;-35
2022/04/27 00:06:15;;;;;;;;;;;;;;;;;;336524;29;855;-35
2022/04/27 00:06:27;;;;;;;;;;;;;;;;;;337287;29;1039;-34
2022/04/27 00:06:38;;;;;;;;;;;;;;;;;;337830;29;964;-35
2022/04/27 00:06:49;;;;;;;;;;;;;;;;;;339111;29;1037;-34
2022/04/27 00:07:09;;;;;;;;;;;;;;;;;;338824;29;1196;-33
2022/04/27 00:07:19;;;;;;;;;;;;;;;;;;338363;29;977;-34
2022/04/27 00:07:30;;;;;;;;;;;;;;;;;;338827;29;1403;-34
2022/04/27 00:07:44;;;;;;;;;;;;;;;;;;338480;29;1188;-35
2022/04/27 00:07:55;;;;;;;;;;;;;;;;;;338930;29;893;-36
2022/04/27 00:08:06;;;;;;;;;;;;;;;;;;337677;29;1164;-34
2022/04/27 00:08:17;;;;;;;;;;;;;;;;;;337666;29;860;-35
2022/04/27 00:08:28;;;;;;;;;;;;;;;;;;337814;29;836;-34
2022/04/27 00:08:39;;;;;;;;;;;;;;;;;;337069;29;1006;-34
2022/04/27 00:08:51;;;;;;;;;;;;;;;;;;339275;29;989;-34
2022/04/27 00:09:04;;;;;;;;;;;;;;;;;;338909;29;1221;-35
2022/04/27 00:09:17;;;;;;;;;;;;;;;;;;338838;29;1098;-35
2022/04/27 00:09:30;;;;;;;;;;;;;;;;;;338799;29;1317;-34
2022/04/27 00:09:41;;;;;;;;;;;;;;;;;;338696;29;776;-34
2022/04/27 00:09:53;;;;;;;;;;;;;;;;;;337697;29;1166;-34
2022/04/27 00:10:06;;;;;;;;;;;;;;;;;;338649;29;823;-34
2022/04/27 00:10:22;;;;;;;;;;;;;;;;;;338947;28;958;-34
2022/04/27 00:10:36;;;;;;;;;;;;;;;;;;338781;28;987;-34
2022/04/27 00:10:49;;;;;;;;;;;;;;;;;;339189;28;835;-34
2022/04/27 00:11:01;;;;;;;;;;;;;;;;;;338149;29;879;-34
2022/04/27 00:11:13;;;;;;;;;;;;;;;;;;338462;29;1107;-32
2022/04/27 00:11:25;;;;;;;;;;;;;;;;;;340327;29;1130;-34
2022/04/27 00:11:39;;;;;;;;;;;;;;;;;;338850;29;1031;-34
2022/04/27 00:11:51;;;;;;;;;;;;;;;;;;339068;29;856;-34
2022/04/27 00:12:02;;;;;;;;;;;;;;;;;;339774;29;1095;-35
2022/04/27 00:12:13;;;;;;;;;;;;;;;;;;339072;29;1330;-34
2022/04/27 00:12:25;;;;;;;;;;;;;;;;;;337739;29;851;-38
2022/04/27 00:12:41;;;;;;;;;;;;;;;;;;337341;29;1173;-34
2022/04/27 00:12:52;;;;;;;;;;;;;;;;;;337817;29;1308;-34
2022/04/27 00:13:02;;;;;;;;;;;;;;;;;;337542;29;888;-34
2022/04/27 00:13:19;;;;;;;;;;;;;;;;;;337418;29;952;-34
2022/04/27 00:13:32;;;;;;;;;;;;;;;;;;337043;29;844;-35
2022/04/27 00:13:43;;;;;;;;;;;;;;;;;;337221;29;1197;-32
2022/04/27 00:13:56;;;;;;;;;;;;;;;;;;337845;29;888;-34
2022/04/27 00:14:08;;;;;;;;;;;;;;;;;;337623;29;1218;-35
2022/04/27 00:14:19;;;;;;;;;;;;;;;;;;337332;29;916;-34
2022/04/27 00:14:31;;;;;;;;;;;;;;;;;;340323;29;1173;-34
2022/04/27 00:14:42;;;;;;;;;;;;;;;;;;339570;29;988;-34
2022/04/27 00:14:53;;;;;;;;;;;;;;;;;;339135;29;1709;-34
2022/04/27 00:15:04;;;;;;;;;;;;;;;;;;338694;29;978;-35
2022/04/27 00:15:44;;;;;;;;;;;;;;;;;;338850;29;1028;-35
2022/04/27 00:15:54;;;;;;;;;;;;;;;;;;338528;29;985;-34
2022/04/27 00:16:05;;;;;;;;;;;;;;;;;;338889;29;903;-33
2022/04/27 00:16:16;;;;;;;;;;;;;;;;;;339094;29;887;-35
2022/04/27 00:16:27;;;;;;;;;;;;;;;;;;338946;29;851;-34
2022/04/27 00:16:38;;;;;;;;;;;;;;;;;;338583;29;1152;-34
2022/04/27 00:16:48;;;;;;;;;;;;;;;;;;339483;29;916;-35
2022/04/27 00:16:59;;;;;;;;;;;;;;;;;;340573;28;1048;-34
2022/04/27 00:17:10;;;;;;;;;;;;;;;;;;341745;28;890;-34
2022/04/27 00:17:20;;;;;;;;;;;;;;;;;;341453;28;1224;-34
2022/04/27 00:17:31;;;;;;;;;;;;;;;;;;341785;28;815;-34
2022/04/27 00:17:41;;;;;;;;;;;;;;;;;;341545;28;854;-34
2022/04/27 00:17:52;;;;;;;;;;;;;;;;;;341725;28;878;-34
2022/04/27 00:18:02;;;;;;;;;;;;;;;;;;341539;28;943;-34
2022/04/27 00:18:13;;;;;;;;;;;;;;;;;;341778;28;879;-35
2022/04/27 00:18:23;;;;;;;;;;;;;;;;;;341542;28;918;-34
2022/04/27 00:18:34;;;;;;;;;;;;;;;;;;341436;28;953;-35
2022/04/27 00:18:45;;;;;;;;;;;;;;;;;;341277;28;1290;-34
2022/04/27 00:18:55;;;;;;;;;;;;;;;;;;341858;28;886;-34
2022/04/27 00:19:06;;;;;;;;;;;;;;;;;;341639;28;822;-35
2022/04/27 00:19:16;;;;;;;;;;;;;;;;;;341638;28;1121;-34
2022/04/27 00:19:27;;;;;;;;;;;;;;;;;;341734;28;799;-34
2022/04/27 00:19:38;;;;;;;;;;;;;;;;;;341519;28;838;-35
2022/04/27 00:19:48;;;;;;;;;;;;;;;;;;341647;28;1020;-34
2022/04/27 00:19:59;;;;;;;;;;;;;;;;;;341339;28;958;-34
2022/04/27 00:20:15;;;;;;;;;;;;;;;;;;341777;28;875;-41
2022/04/27 00:20:27;;;;;;;;;;;;;;;;;;341627;28;1013;-34
2022/04/27 00:20:40;;;;;;;;;;;;;;;;;;341329;28;929;-33
2022/04/27 00:20:52;;;;;;;;;;;;;;;;;;341709;28;886;-34
2022/04/27 00:21:07;;;;;;;;;;;;;;;;;;340262;29;1097;-34
2022/04/27 00:21:19;;;;;;;;;;;;;;;;;;341210;28;1044;-32
2022/04/27 00:21:34;;;;;;;;;;;;;;;;;;341770;28;1070;-34
2022/04/27 00:21:45;;;;;;;;;;;;;;;;;;341543;28;831;-34
2022/04/27 00:21:57;;;;;;;;;;;;;;;;;;340207;29;1215;-35
2022/04/27 00:22:14;;;;;;;;;;;;;;;;;;340535;29;859;-34
2022/04/27 00:22:25;;;;;;;;;;;;;;;;;;340143;29;1429;-33
2022/04/27 00:22:36;;;;;;;;;;;;;;;;;;338175;29;943;-34
2022/04/27 00:22:47;;;;;;;;;;;;;;;;;;339790;29;1431;-33
2022/04/27 00:23:00;;;;;;;;;;;;;;;;;;340441;28;971;-34
2022/04/27 00:23:12;;;;;;;;;;;;;;;;;;341327;28;955;-34
2022/04/27 00:23:27;;;;;;;;;;;;;;;;;;340768;28;1217;-34
2022/04/27 00:23:38;;;;;;;;;;;;;;;;;;340141;29;846;-34
2022/04/27 00:23:54;;;;;;;;;;;;;;;;;;340235;29;928;-34
2022/04/27 00:24:05;;;;;;;;;;;;;;;;;;340451;28;1197;-32
2022/04/27 00:24:18;;;;;;;;;;;;;;;;;;339481;28;1160;-34
2022/04/27 00:24:30;;;;;;;;;;;;;;;;;;341711;28;847;-34
2022/04/27 00:24:40;;;;;;;;;;;;;;;;;;341181;28;1077;-33
2022/04/27 00:24:52;;;;;;;;;;;;;;;;;;341109;28;1158;-34
2022/04/27 00:25:04;;;;;;;;;;;;;;;;;;341446;28;867;-35
2022/04/27 00:25:18;;;;;;;;;;;;;;;;;;341743;28;896;-34
2022/04/27 00:25:31;;;;;;;;;;;;;;;;;;342974;28;925;-34
2022/04/27 00:25:44;;;;;;;;;;;;;;;;;;341402;28;1171;-34
2022/04/27 00:26:00;;;;;;;;;;;;;;;;;;336695;29;962;-34
2022/04/27 00:26:12;;;;;;;;;;;;;;;;;;338419;29;906;-34
2022/04/27 00:26:23;;;;;;;;;;;;;;;;;;338990;29;1053;-35
2022/04/27 00:26:36;;;;;;;;;;;;;;;;;;340157;29;906;-34
2022/04/27 00:26:47;;;;;;;;;;;;;;;;;;339681;29;1115;-33
2022/04/27 00:27:02;;;;;;;;;;;;;;;;;;340353;29;890;-35
2022/04/27 00:27:17;;;;;;;;;;;;;;;;;;339074;29;1094;-34
2022/04/27 00:27:28;;;;;;;;;;;;;;;;;;339064;29;874;-34
2022/04/27 00:27:39;;;;;;;;;;;;;;;;;;338231;29;1003;-34
2022/04/27 00:27:51;;;;;;;;;;;;;;;;;;339743;29;860;-34
2022/04/27 00:28:03;;;;;;;;;;;;;;;;;;340209;29;1682;-34
2022/04/27 00:28:14;;;;;;;;;;;;;;;;;;335258;29;1631;-35
2022/04/27 00:28:26;;;;;;;;;;;;;;;;;;337595;29;862;-34
2022/04/27 00:28:41;;;;;;;;;;;;;;;;;;337370;29;801;-34
2022/04/27 00:28:53;;;;;;;;;;;;;;;;;;337829;29;906;-34
2022/04/27 00:29:09;;;;;;;;;;;;;;;;;;338734;29;1148;-34
2022/04/27 00:29:22;;;;;;;;;;;;;;;;;;335883;29;1112;-33
2022/04/27 00:30:39;;;;;;;;;;;;;;;;;;337463;29;1285;-34
2022/04/27 00:30:51;;;;;;;;;;;;;;;;;;337922;29;1189;-35
2022/04/27 00:31:04;;;;;;;;;;;;;;;;;;338854;29;904;-34
2022/04/27 00:31:18;;;;;;;;;;;;;;;;;;340886;28;898;-35
2022/04/27 00:31:31;;;;;;;;;;;;;;;;;;340727;28;1235;-34
2022/04/27 00:31:42;;;;;;;;;;;;;;;;;;340927;28;917;-34
2022/04/27 00:31:54;;;;;;;;;;;;;;;;;;341465;28;1125;-33
2022/04/27 00:32:05;;;;;;;;;;;;;;;;;;340184;29;947;-34
2022/04/27 00:32:16;;;;;;;;;;;;;;;;;;337739;29;925;-35
2022/04/27 00:32:27;;;;;;;;;;;;;;;;;;340054;29;875;-34
2022/04/27 00:32:39;;;;;;;;;;;;;;;;;;339061;29;1026;-34
2022/04/27 00:32:50;;;;;;;;;;;;;;;;;;338419;29;1557;-35
2022/04/27 00:33:01;;;;;;;;;;;;;;;;;;337955;29;788;-34
2022/04/27 00:33:11;;;;;;;;;;;;;;;;;;337145;29;828;-34
2022/04/27 00:33:22;;;;;;;;;;;;;;;;;;335967;29;898;-35
2022/04/27 00:33:35;;;;;;;;;;;;;;;;;;336559;29;900;-34
2022/04/27 00:33:47;;;;;;;;;;;;;;;;;;336593;29;879;-36
2022/04/27 00:34:00;;;;;;;;;;;;;;;;;;336940;29;1457;-35
2022/04/27 00:34:12;;;;;;;;;;;;;;;;;;337726;29;1174;-35
2022/04/27 00:34:24;;;;;;;;;;;;;;;;;;337656;29;1253;-34
2022/04/27 00:34:35;;;;;;;;;;;;;;;;;;337497;29;1039;-35
2022/04/27 00:34:46;;;;;;;;;;;;;;;;;;338262;29;938;-35
2022/04/27 00:34:58;;;;;;;;;;;;;;;;;;339111;29;861;-34
2022/04/27 00:35:12;;;;;;;;;;;;;;;;;;337773;29;1437;-35
2022/04/27 00:35:24;;;;;;;;;;;;;;;;;;336484;29;897;-33
2022/04/27 00:35:36;;;;;;;;;;;;;;;;;;336387;29;823;-35
2022/04/27 00:35:48;;;;;;;;;;;;;;;;;;336232;29;1099;-36
2022/04/27 00:36:00;;;;;;;;;;;;;;;;;;333878;29;1429;-35
2022/04/27 00:36:11;;;;;;;;;;;;;;;;;;333479;29;888;-35
2022/04/27 00:36:21;;;;;;;;;;;;;;;;;;334061;29;914;-35
2022/04/27 00:36:35;;;;;;;;;;;;;;;;;;336365;29;1151;-35
2022/04/27 00:36:49;;;;;;;;;;;;;;;;;;336250;29;1703;-34
2022/04/27 00:36:59;;;;;;;;;;;;;;;;;;336400;29;1206;-33
2022/04/27 00:37:11;;;;;;;;;;;;;;;;;;336654;29;827;-34
2022/04/27 00:37:23;;;;;;;;;;;;;;;;;;336337;29;1198;-34
2022/04/27 00:37:38;;;;;;;;;;;;;;;;;;336281;29;843;-35
2022/04/27 00:37:50;;;;;;;;;;;;;;;;;;336559;29;1146;-35
2022/04/27 00:38:04;;;;;;;;;;;;;;;;;;338234;29;829;-35
2022/04/27 00:38:20;;;;;;;;;;;;;;;;;;338812;29;895;-35
2022/04/27 00:38:31;;;;;;;;;;;;;;;;;;338193;29;1380;-34
2022/04/27 00:38:42;;;;;;;;;;;;;;;;;;336978;29;1167;-35
2022/04/27 00:38:54;;;;;;;;;;;;;;;;;;337579;29;1156;-35
2022/04/27 00:39:04;;;;;;;;;;;;;;;;;;337493;29;1143;-34
2022/04/27 00:39:17;;;;;;;;;;;;;;;;;;338038;29;1336;-35
2022/04/27 00:39:28;;;;;;;;;;;;;;;;;;335254;29;1312;-34
2022/04/27 00:39:39;;;;;;;;;;;;;;;;;;337466;29;1154;-34
2022/04/27 00:39:50;;;;;;;;;;;;;;;;;;336356;29;1371;-34
2022/04/27 00:40:01;;;;;;;;;;;;;;;;;;337820;29;855;-35
2022/04/27 00:40:12;;;;;;;;;;;;;;;;;;338837;29;1577;-35
2022/04/27 00:40:23;;;;;;;;;;;;;;;;;;339047;29;1161;-34
2022/04/27 00:40:33;;;;;;;;;;;;;;;;;;337870;29;942;-34
2022/04/27 00:40:44;;;;;;;;;;;;;;;;;;336334;29;1390;-35
2022/04/27 00:40:55;;;;;;;;;;;;;;;;;;336087;29;1304;-34
2022/04/27 00:41:07;;;;;;;;;;;;;;;;;;337687;29;1138;-34
2022/04/27 00:41:19;;;;;;;;;;;;;;;;;;337897;29;815;-35
2022/04/27 00:41:32;;;;;;;;;;;;;;;;;;337780;29;908;-35
2022/04/27 00:41:59;;;;;;;;;;;;;;;;;;336127;29;1543;-35
2022/04/27 00:42:21;;;;;;;;;;;;;;;;;;336459;29;1059;-34
2022/04/27 00:42:33;;;;;;;;;;;;;;;;;;337657;29;1529;-34
2022/04/27 00:42:44;;;;;;;;;;;;;;;;;;336019;29;1988;-34
2022/04/27 00:42:54;;;;;;;;;;;;;;;;;;336374;29;1182;-35
2022/04/27 00:43:05;;;;;;;;;;;;;;;;;;335753;29;804;-33
2022/04/27 00:43:33;;;;;;;;;;;;;;;;;;334696;29;1058;-34
2022/04/27 00:43:46;;;;;;;;;;;;;;;;;;336493;29;1624;-35
2022/04/27 00:43:58;;;;;;;;;;;;;;;;;;336544;29;819;-34
2022/04/27 00:44:08;;;;;;;;;;;;;;;;;;337909;29;1326;-33
2022/04/27 00:44:23;;;;;;;;;;;;;;;;;;338066;29;878;-34
2022/04/27 00:44:34;;;;;;;;;;;;;;;;;;338094;29;813;-35
2022/04/27 00:44:47;;;;;;;;;;;;;;;;;;337949;29;1082;-34
2022/04/27 00:44:58;;;;;;;;;;;;;;;;;;339141;29;950;-35
2022/04/27 00:45:11;;;;;;;;;;;;;;;;;;338148;29;1423;-35
2022/04/27 00:45:23;;;;;;;;;;;;;;;;;;333945;29;1372;-34
2022/04/27 00:45:34;;;;;;;;;;;;;;;;;;336562;29;1867;-35
2022/04/27 00:45:45;;;;;;;;;;;;;;;;;;336734;29;753;-35
2022/04/27 00:45:56;;;;;;;;;;;;;;;;;;336559;29;914;-35
2022/04/27 00:46:09;;;;;;;;;;;;;;;;;;337948;29;1062;-34
2022/04/27 00:46:21;;;;;;;;;;;;;;;;;;339349;29;1589;-34
2022/04/27 00:46:32;;;;;;;;;;;;;;;;;;337648;29;1084;-34
2022/04/27 00:46:42;;;;;;;;;;;;;;;;;;337785;29;1342;-34
2022/04/27 00:46:56;;;;;;;;;;;;;;;;;;337855;29;1110;-35
2022/04/27 00:47:07;;;;;;;;;;;;;;;;;;338107;29;828;-35
2022/04/27 00:47:20;;;;;;;;;;;;;;;;;;337968;29;863;-35
2022/04/27 00:47:33;;;;;;;;;;;;;;;;;;339171;29;947;-35
2022/04/27 00:47:44;;;;;;;;;;;;;;;;;;337568;29;1044;-35
2022/04/27 00:48:01;;;;;;;;;;;;;;;;;;337733;29;883;-34
2022/04/27 00:48:13;;;;;;;;;;;;;;;;;;337062;29;1159;-35
2022/04/27 00:48:23;;;;;;;;;;;;;;;;;;338072;29;1017;-34
2022/04/27 00:48:36;;;;;;;;;;;;;;;;;;339259;29;1371;-36
2022/04/27 00:48:47;;;;;;;;;;;;;;;;;;340624;28;1165;-35
2022/04/27 00:48:59;;;;;;;;;;;;;;;;;;341651;28;1022;-34
2022/04/27 00:49:11;;;;;;;;;;;;;;;;;;342027;28;834;-34
2022/04/27 00:49:22;;;;;;;;;;;;;;;;;;339841;29;1136;-34
2022/04/27 00:49:34;;;;;;;;;;;;;;;;;;340594;29;1066;-34
2022/04/27 00:49:47;;;;;;;;;;;;;;;;;;340396;29;1008;-36
2022/04/27 00:49:58;;;;;;;;;;;;;;;;;;339288;29;1079;-33
2022/04/27 00:50:11;;;;;;;;;;;;;;;;;;340636;29;939;-34
2022/04/27 00:50:23;;;;;;;;;;;;;;;;;;340690;29;851;-34
2022/04/27 00:50:34;;;;;;;;;;;;;;;;;;338352;29;1104;-35
2022/04/27 00:50:48;;;;;;;;;;;;;;;;;;339193;29;1636;-34
2022/04/27 00:50:59;;;;;;;;;;;;;;;;;;337943;29;1036;-34
2022/04/27 00:51:12;;;;;;;;;;;;;;;;;;338218;29;890;-34
2022/04/27 00:51:24;;;;;;;;;;;;;;;;;;338102;29;882;-34
2022/04/27 00:51:37;;;;;;;;;;;;;;;;;;337337;29;1251;-34
2022/04/27 00:51:48;;;;;;;;;;;;;;;;;;338006;29;1476;-35
2022/04/27 00:51:59;;;;;;;;;;;;;;;;;;336229;29;1301;-34
2022/04/27 00:52:12;;;;;;;;;;;;;;;;;;335005;29;1008;-35
2022/04/27 00:52:24;;;;;;;;;;;;;;;;;;336676;29;1626;-35
2022/04/27 00:52:37;;;;;;;;;;;;;;;;;;336705;29;835;-35
2022/04/27 00:52:52;;;;;;;;;;;;;;;;;;339360;29;1318;-34
2022/04/27 00:53:06;;;;;;;;;;;;;;;;;;338117;29;1031;-36
2022/04/27 00:53:18;;;;;;;;;;;;;;;;;;338650;29;899;-35
2022/04/27 00:53:29;;;;;;;;;;;;;;;;;;339377;29;1130;-35
2022/04/27 00:53:43;;;;;;;;;;;;;;;;;;337633;29;1286;-34
2022/04/27 00:53:59;;;;;;;;;;;;;;;;;;336476;29;1252;-35
2022/04/27 00:54:14;;;;;;;;;;;;;;;;;;336761;29;1389;-35
2022/04/27 00:54:27;;;;;;;;;;;;;;;;;;337994;29;1081;-34
2022/04/27 00:54:39;;;;;;;;;;;;;;;;;;337729;29;1447;-35
2022/04/27 00:54:53;;;;;;;;;;;;;;;;;;339425;29;839;-35
2022/04/27 00:55:07;;;;;;;;;;;;;;;;;;337526;29;1188;-35
2022/04/27 00:55:18;;;;;;;;;;;;;;;;;;337893;29;815;-35
2022/04/27 00:55:30;;;;;;;;;;;;;;;;;;338146;29;1305;-35
2022/04/27 00:55:42;;;;;;;;;;;;;;;;;;336496;29;1425;-35
2022/04/27 00:55:53;;;;;;;;;;;;;;;;;;336889;29;955;-35
2022/04/27 00:56:05;;;;;;;;;;;;;;;;;;336563;29;887;-35
2022/04/27 00:56:17;;;;;;;;;;;;;;;;;;336441;29;949;-35
2022/04/27 00:56:28;;;;;;;;;;;;;;;;;;338135;29;876;-35
2022/04/27 00:56:43;;;;;;;;;;;;;;;;;;337416;29;909;-35
2022/04/27 00:56:56;;;;;;;;;;;;;;;;;;339272;29;1048;-34
2022/04/27 00:57:09;;;;;;;;;;;;;;;;;;339386;29;1340;-35
2022/04/27 00:57:24;;;;;;;;;;;;;;;;;;339343;29;823;-36
2022/04/27 00:57:36;;;;;;;;;;;;;;;;;;338072;29;1233;-34
2022/04/27 00:57:47;;;;;;;;;;;;;;;;;;339479;29;834;-33
2022/04/27 00:58:04;;;;;;;;;;;;;;;;;;337974;29;824;-35
2022/04/27 00:58:15;;;;;;;;;;;;;;;;;;335492;29;1172;-34
2022/04/27 00:58:27;;;;;;;;;;;;;;;;;;335312;29;1167;-34
2022/04/27 00:58:41;;;;;;;;;;;;;;;;;;335263;29;812;-38
2022/04/27 00:58:51;;;;;;;;;;;;;;;;;;336363;29;844;-35
2022/04/27 00:59:02;;;;;;;;;;;;;;;;;;336690;29;1007;-35
2022/04/27 00:59:13;;;;;;;;;;;;;;;;;;336846;29;1614;-35
2022/04/27 00:59:28;;;;;;;;;;;;;;;;;;336338;29;1644;-33
2022/04/27 00:59:41;;;;;;;;;;;;;;;;;;337682;29;878;-35
2022/04/27 00:59:53;;;;;;;;;;;;;;;;;;338089;29;1589;-33
2022/04/27 01:00:05;;;;;;;;;;;;;;;;;;337916;29;1627;-35
2022/04/27 01:00:16;;;;;;;;;;;;;;;;;;337994;29;1752;-35
2022/04/27 01:00:27;;;;;;;;;;;;;;;;;;338056;29;1409;-35
2022/04/27 01:00:38;;;;;;;;;;;;;;;;;;337867;29;930;-34
2022/04/27 01:00:50;;;;;;;;;;;;;;;;;;338037;29;882;-34
2022/04/27 01:01:02;;;;;;;;;;;;;;;;;;337961;29;988;-35
2022/04/27 01:01:15;;;;;;;;;;;;;;;;;;337825;29;1436;-35
2022/04/27 01:01:26;;;;;;;;;;;;;;;;;;336909;29;844;-35
2022/04/27 01:01:38;;;;;;;;;;;;;;;;;;336290;29;1140;-34
2022/04/27 01:01:51;;;;;;;;;;;;;;;;;;336816;29;1268;-34
2022/04/27 01:02:03;;;;;;;;;;;;;;;;;;340056;29;1289;-35
2022/04/27 01:02:16;;;;;;;;;;;;;;;;;;340191;29;1083;-35
2022/04/27 01:02:28;;;;;;;;;;;;;;;;;;340643;29;847;-34
2022/04/27 01:02:40;;;;;;;;;;;;;;;;;;338851;29;1915;-35
2022/04/27 01:02:51;;;;;;;;;;;;;;;;;;339250;29;828;-35
2022/04/27 01:03:02;;;;;;;;;;;;;;;;;;338683;29;1395;-34
2022/04/27 01:03:14;;;;;;;;;;;;;;;;;;339312;29;866;-34
2022/04/27 01:03:27;;;;;;;;;;;;;;;;;;336808;29;1675;-34
2022/04/27 01:03:38;;;;;;;;;;;;;;;;;;336300;29;976;-35
2022/04/27 01:03:49;;;;;;;;;;;;;;;;;;336707;29;733;-34
2022/04/27 01:04:00;;;;;;;;;;;;;;;;;;337685;29;1045;-35
2022/04/27 01:04:12;;;;;;;;;;;;;;;;;;339130;29;1129;-34
2022/04/27 01:04:23;;;;;;;;;;;;;;;;;;337490;29;2373;-35
2022/04/27 01:04:37;;;;;;;;;;;;;;;;;;339109;29;1163;-33
2022/04/27 01:04:48;;;;;;;;;;;;;;;;;;339459;29;912;-35
2022/04/27 01:04:59;;;;;;;;;;;;;;;;;;339049;29;1380;-34
2022/04/27 01:05:11;;;;;;;;;;;;;;;;;;339186;29;1162;-34
2022/04/27 01:05:24;;;;;;;;;;;;;;;;;;338024;29;1211;-35
2022/04/27 01:05:35;;;;;;;;;;;;;;;;;;337673;29;1131;-33
2022/04/27 01:05:47;;;;;;;;;;;;;;;;;;338012;29;1023;-35
2022/04/27 01:05:58;;;;;;;;;;;;;;;;;;338038;29;1143;-34
2022/04/27 01:06:10;;;;;;;;;;;;;;;;;;338224;29;1076;-35
2022/04/27 01:06:23;;;;;;;;;;;;;;;;;;337582;29;1136;-35
2022/04/27 01:06:34;;;;;;;;;;;;;;;;;;338141;29;803;-34
2022/04/27 01:06:45;;;;;;;;;;;;;;;;;;339642;29;1222;-35
2022/04/27 01:06:56;;;;;;;;;;;;;;;;;;338045;29;1576;-34
2022/04/27 01:07:09;;;;;;;;;;;;;;;;;;337861;29;1265;-34
2022/04/27 01:07:20;;;;;;;;;;;;;;;;;;336566;29;1180;-34
2022/04/27 01:07:31;;;;;;;;;;;;;;;;;;338078;29;764;-34
2022/04/27 01:07:42;;;;;;;;;;;;;;;;;;337757;29;1662;-34
2022/04/27 01:07:59;;;;;;;;;;;;;;;;;;338012;29;928;-34
2022/04/27 01:08:11;;;;;;;;;;;;;;;;;;339222;29;1388;-34
2022/04/27 01:08:23;;;;;;;;;;;;;;;;;;340465;29;934;-34
2022/04/27 01:08:36;;;;;;;;;;;;;;;;;;339051;29;1147;-35
2022/04/27 01:08:47;;;;;;;;;;;;;;;;;;338978;29;866;-35
2022/04/27 01:08:58;;;;;;;;;;;;;;;;;;339380;29;823;-38
2022/04/27 01:09:11;;;;;;;;;;;;;;;;;;336654;29;1331;-35
2022/04/27 01:09:28;;;;;;;;;;;;;;;;;;338038;29;1179;-35
2022/04/27 01:09:40;;;;;;;;;;;;;;;;;;340342;29;1403;-34
2022/04/27 01:09:54;;;;;;;;;;;;;;;;;;339958;29;1273;-35
2022/04/27 01:10:05;;;;;;;;;;;;;;;;;;340777;29;882;-34
2022/04/27 01:10:17;;;;;;;;;;;;;;;;;;337726;29;1209;-35
2022/04/27 01:10:30;;;;;;;;;;;;;;;;;;339199;29;861;-35
2022/04/27 01:10:43;;;;;;;;;;;;;;;;;;337813;29;1406;-34
2022/04/27 01:10:59;;;;;;;;;;;;;;;;;;338041;29;866;-34
2022/04/27 01:11:14;;;;;;;;;;;;;;;;;;337811;29;1433;-35
2022/04/27 01:11:32;;;;;;;;;;;;;;;;;;337969;29;1349;-34
2022/04/27 01:11:43;;;;;;;;;;;;;;;;;;337768;29;1458;-34
2022/04/27 01:11:56;;;;;;;;;;;;;;;;;;338845;29;1551;-34
2022/04/27 01:12:08;;;;;;;;;;;;;;;;;;340042;29;1154;-35
2022/04/27 01:12:28;;;;;;;;;;;;;;;;;;340589;29;902;-35
2022/04/27 01:12:49;;;;;;;;;;;;;;;;;;339282;29;1651;-35
2022/04/27 01:13:01;;;;;;;;;;;;;;;;;;340174;29;1073;-33
2022/04/27 01:13:13;;;;;;;;;;;;;;;;;;339179;29;836;-35
2022/04/27 01:13:27;;;;;;;;;;;;;;;;;;339401;29;828;-35
2022/04/27 01:13:43;;;;;;;;;;;;;;;;;;338992;29;1208;-33
2022/04/27 01:13:54;;;;;;;;;;;;;;;;;;337959;29;1103;-35
2022/04/27 01:14:07;;;;;;;;;;;;;;;;;;339275;29;1406;-35
2022/04/27 01:14:17;;;;;;;;;;;;;;;;;;339294;29;1181;-35
2022/04/27 01:14:28;;;;;;;;;;;;;;;;;;339412;29;964;-35
2022/04/27 01:14:41;;;;;;;;;;;;;;;;;;339105;29;1501;-35
2022/04/27 01:14:52;;;;;;;;;;;;;;;;;;339384;29;785;-35
2022/04/27 01:15:05;;;;;;;;;;;;;;;;;;339287;29;916;-35
2022/04/27 01:15:30;;;;;;;;;;;;;;;;;;340127;29;1238;-34
2022/04/27 01:15:42;;;;;;;;;;;;;;;;;;339045;29;1212;-34
2022/04/27 01:15:54;;;;;;;;;;;;;;;;;;339233;29;1222;-34
2022/04/27 01:16:11;;;;;;;;;;;;;;;;;;338656;29;1190;-35
2022/04/27 01:16:21;;;;;;;;;;;;;;;;;;339370;29;855;-36
2022/04/27 01:16:34;;;;;;;;;;;;;;;;;;339242;29;891;-35
2022/04/27 01:16:54;;;;;;;;;;;;;;;;;;339280;29;843;-35
2022/04/27 01:17:05;;;;;;;;;;;;;;;;;;339226;29;1092;-35
2022/04/27 01:17:17;;;;;;;;;;;;;;;;;;337954;29;1289;-35
2022/04/27 01:17:29;;;;;;;;;;;;;;;;;;338225;29;820;-34
2022/04/27 01:17:41;;;;;;;;;;;;;;;;;;337388;29;1660;-35
2022/04/27 01:17:52;;;;;;;;;;;;;;;;;;338688;29;1413;-34
2022/04/27 01:18:03;;;;;;;;;;;;;;;;;;340217;29;1200;-35
2022/04/27 01:18:17;;;;;;;;;;;;;;;;;;337811;29;1237;-35
2022/04/27 01:18:30;;;;;;;;;;;;;;;;;;340464;29;1257;-34
2022/04/27 01:18:43;;;;;;;;;;;;;;;;;;337701;29;1372;-35
2022/04/27 01:18:55;;;;;;;;;;;;;;;;;;338047;29;895;-34
2022/04/27 01:19:08;;;;;;;;;;;;;;;;;;339235;29;1147;-35
2022/04/27 01:19:19;;;;;;;;;;;;;;;;;;337919;29;1399;-36
2022/04/27 01:19:31;;;;;;;;;;;;;;;;;;339119;29;1235;-35
2022/04/27 01:19:42;;;;;;;;;;;;;;;;;;339224;29;895;-34
2022/04/27 01:19:53;;;;;;;;;;;;;;;;;;339029;29;1512;-35
2022/04/27 01:20:05;;;;;;;;;;;;;;;;;;338152;29;1373;-35
2022/04/27 01:20:16;;;;;;;;;;;;;;;;;;339194;29;1259;-34
2022/04/27 01:20:37;;;;;;;;;;;;;;;;;;338987;29;1246;-35
2022/04/27 01:20:50;;;;;;;;;;;;;;;;;;337914;29;954;-34
2022/04/27 01:21:03;;;;;;;;;;;;;;;;;;337929;29;1532;-35
2022/04/27 01:21:18;;;;;;;;;;;;;;;;;;337849;29;1099;-35
2022/04/27 01:21:38;;;;;;;;;;;;;;;;;;338869;29;1402;-34
2022/04/27 01:21:52;;;;;;;;;;;;;;;;;;338728;29;1313;-36
2022/04/27 01:22:03;;;;;;;;;;;;;;;;;;338886;29;926;-35
2022/04/27 01:22:17;;;;;;;;;;;;;;;;;;340519;29;1077;-35
2022/04/27 01:22:29;;;;;;;;;;;;;;;;;;340395;29;1473;-35
2022/04/27 01:22:42;;;;;;;;;;;;;;;;;;338796;29;1919;-36
2022/04/27 01:22:54;;;;;;;;;;;;;;;;;;339277;29;1394;-35
2022/04/27 01:23:06;;;;;;;;;;;;;;;;;;338019;29;1617;-34
2022/04/27 01:23:18;;;;;;;;;;;;;;;;;;339167;29;1131;-35
2022/04/27 01:23:30;;;;;;;;;;;;;;;;;;339002;29;607;-35
2022/04/27 01:23:43;;;;;;;;;;;;;;;;;;339068;29;1388;-34
2022/04/27 01:23:55;;;;;;;;;;;;;;;;;;338617;29;1177;-35
2022/04/27 01:24:06;;;;;;;;;;;;;;;;;;338091;29;1287;-36
2022/04/27 01:24:20;;;;;;;;;;;;;;;;;;337839;29;1208;-36
2022/04/27 01:24:32;;;;;;;;;;;;;;;;;;337708;29;894;-35
2022/04/27 01:24:44;;;;;;;;;;;;;;;;;;337717;29;980;-35
2022/04/27 01:24:57;;;;;;;;;;;;;;;;;;338932;29;1341;-35
2022/04/27 01:25:09;;;;;;;;;;;;;;;;;;339344;29;999;-35
2022/04/27 01:25:20;;;;;;;;;;;;;;;;;;339292;29;898;-35
2022/04/27 01:25:50;;;;;;;;;;;;;;;;;;339370;29;816;-35
2022/04/27 01:26:05;;;;;;;;;;;;;;;;;;339569;29;879;-35
2022/04/27 01:26:17;;;;;;;;;;;;;;;;;;341249;28;1463;-35
2022/04/27 01:26:28;;;;;;;;;;;;;;;;;;341849;28;974;-35
2022/04/27 01:26:40;;;;;;;;;;;;;;;;;;341736;28;860;-35
2022/04/27 01:26:52;;;;;;;;;;;;;;;;;;342565;28;866;-35
2022/04/27 01:27:02;;;;;;;;;;;;;;;;;;341827;28;1150;-35
2022/04/27 01:27:13;;;;;;;;;;;;;;;;;;340390;29;1154;-35
2022/04/27 01:27:25;;;;;;;;;;;;;;;;;;338847;29;1406;-35
2022/04/27 01:27:41;;;;;;;;;;;;;;;;;;337682;29;1187;-35
2022/04/27 01:27:51;;;;;;;;;;;;;;;;;;338423;29;892;-35
2022/04/27 01:28:06;;;;;;;;;;;;;;;;;;338069;29;862;-35
2022/04/27 01:28:21;;;;;;;;;;;;;;;;;;339330;29;1523;-35
2022/04/27 01:28:33;;;;;;;;;;;;;;;;;;338949;29;1213;-35
2022/04/27 01:28:45;;;;;;;;;;;;;;;;;;339645;29;1981;-35
2022/04/27 01:28:56;;;;;;;;;;;;;;;;;;339299;29;1514;-35
2022/04/27 01:29:07;;;;;;;;;;;;;;;;;;337972;29;1112;-36
2022/04/27 01:29:19;;;;;;;;;;;;;;;;;;337703;29;1233;-36
2022/04/27 01:29:30;;;;;;;;;;;;;;;;;;337630;29;959;-35
2022/04/27 01:29:41;;;;;;;;;;;;;;;;;;337903;29;1296;-35
2022/04/27 01:29:52;;;;;;;;;;;;;;;;;;337855;29;941;-35
2022/04/27 01:30:03;;;;;;;;;;;;;;;;;;337705;29;1458;-34
2022/04/27 01:30:14;;;;;;;;;;;;;;;;;;337563;29;926;-35
2022/04/27 01:30:25;;;;;;;;;;;;;;;;;;337742;29;1430;-36
2022/04/27 01:30:37;;;;;;;;;;;;;;;;;;335941;29;1280;-35